createdAt,value
2016-09-11T00:00:17.004Z,22.2
2016-09-11T00:00:37.655Z,22.2
2016-09-11T00:00:58.223Z,22.1
2016-09-11T00:01:19.175Z,22.2
2016-09-11T00:01:39.730Z,22.2
2016-09-11T00:02:00.265Z,22.2
2016-09-11T00:02:20.910Z,22.2
2016-09-11T00:02:41.459Z,22.2
2016-09-11T00:03:02.051Z,22.2
2016-09-11T00:03:22.612Z,22.2
2016-09-11T00:03:43.169Z,22.2
2016-09-11T00:04:03.933Z,22.3
2016-09-11T00:04:24.510Z,22.2
2016-09-11T00:04:45.138Z,22.2
2016-09-11T00:05:05.688Z,22.2
2016-09-11T00:05:26.246Z,22.2
2016-09-11T00:05:47.068Z,22.2
2016-09-11T00:06:07.808Z,22.3
2016-09-11T00:06:28.355Z,22.2
2016-09-11T00:06:48.929Z,22.3
2016-09-11T00:07:09.851Z,22.3
2016-09-11T00:07:30.413Z,22.3
2016-09-11T00:07:50.968Z,22.2
2016-09-11T00:08:11.942Z,22.2
2016-09-11T00:08:32.753Z,22.3
2016-09-11T00:08:53.313Z,22.3
2016-09-11T00:09:14.046Z,22.2
2016-09-11T00:09:34.609Z,22.3
2016-09-11T00:09:55.208Z,22.3
2016-09-11T00:10:15.772Z,22.2
2016-09-11T00:10:36.370Z,22.3
2016-09-11T00:10:56.964Z,22.3
2016-09-11T00:11:17.624Z,22.2
2016-09-11T00:11:38.231Z,22.2
2016-09-11T00:11:58.824Z,22.3
2016-09-11T00:12:19.536Z,22.3
2016-09-11T00:12:40.265Z,22.2
2016-09-11T00:13:00.995Z,22.2
2016-09-11T00:13:22.208Z,22.3
2016-09-11T00:13:42.780Z,22.2
2016-09-11T00:14:03.326Z,22.3
2016-09-11T00:14:23.888Z,22.3
2016-09-11T00:14:44.598Z,22.2
2016-09-11T00:15:05.600Z,22.2
2016-09-11T00:15:26.314Z,22.3
2016-09-11T00:15:46.963Z,22.3
2016-09-11T00:16:07.763Z,22.2
2016-09-11T00:16:28.557Z,22.3
2016-09-11T00:16:49.152Z,22.2
2016-09-11T00:17:10.387Z,22.2
2016-09-11T00:17:30.929Z,22.2
2016-09-11T00:17:51.614Z,22.2
2016-09-11T00:18:12.553Z,22.3
2016-09-11T00:18:33.218Z,22.2
2016-09-11T00:18:53.817Z,22.2
2016-09-11T00:19:14.644Z,22.2
2016-09-11T00:19:35.294Z,22.2
2016-09-11T00:19:56.236Z,22.2
2016-09-11T00:20:17.048Z,22.2
2016-09-11T00:20:37.657Z,22.2
2016-09-11T00:20:58.267Z,22.3
2016-09-11T00:21:18.839Z,22.2
2016-09-11T00:21:39.371Z,22.2
2016-09-11T00:21:59.953Z,22.2
2016-09-11T00:22:20.734Z,22.2
2016-09-11T00:22:41.297Z,22.2
2016-09-11T00:23:01.885Z,22.2
2016-09-11T00:23:22.576Z,22.3
2016-09-11T00:23:43.109Z,22.3
2016-09-11T00:24:03.712Z,22.2
2016-09-11T00:24:24.325Z,22.2
2016-09-11T00:24:44.963Z,22.2
2016-09-11T00:25:05.649Z,22.2
2016-09-11T00:25:26.234Z,22.2
2016-09-11T00:25:46.795Z,22.2
2016-09-11T00:26:07.364Z,22.2
2016-09-11T00:26:28.100Z,22.2
2016-09-11T00:26:48.675Z,22.2
2016-09-11T00:27:09.651Z,22.2
2016-09-11T00:27:30.278Z,22.2
2016-09-11T00:27:50.854Z,22.2
2016-09-11T00:28:11.752Z,22.2
2016-09-11T00:28:32.440Z,22.2
2016-09-11T00:28:53.032Z,22.2
2016-09-11T00:29:13.682Z,22.2
2016-09-11T00:29:34.254Z,22.2
2016-09-11T00:29:54.803Z,22.1
2016-09-11T00:30:16.882Z,22.2
2016-09-11T00:30:37.429Z,22.2
2016-09-11T00:30:58.077Z,22.2
2016-09-11T00:31:18.735Z,22.2
2016-09-11T00:31:39.597Z,22.2
2016-09-11T00:32:00.261Z,22.2
2016-09-11T00:32:21.100Z,22.2
2016-09-11T00:32:41.766Z,22.2
2016-09-11T00:33:02.401Z,22.1
2016-09-11T00:33:23.004Z,22.1
2016-09-11T00:33:43.582Z,22.2
2016-09-11T00:34:04.417Z,22.2
2016-09-11T00:34:25.082Z,22.1
2016-09-11T00:34:45.788Z,22.1
2016-09-11T00:35:06.400Z,22.2
2016-09-11T00:35:27.345Z,22.1
2016-09-11T00:35:48.618Z,22.2
2016-09-11T00:36:09.214Z,22.1
2016-09-11T00:36:29.787Z,22.1
2016-09-11T00:36:50.410Z,22.1
2016-09-11T00:37:11.044Z,22.2
2016-09-11T00:37:31.760Z,22.1
2016-09-11T00:37:52.356Z,22.1
2016-09-11T00:38:12.971Z,22.1
2016-09-11T00:38:33.630Z,22.1
2016-09-11T00:38:54.218Z,22.1
2016-09-11T00:39:14.954Z,22.2
2016-09-11T00:39:35.514Z,22.1
2016-09-11T00:39:56.143Z,22.1
2016-09-11T00:40:17.217Z,22.1
2016-09-11T00:40:37.794Z,22.2
2016-09-11T00:40:58.397Z,22.1
2016-09-11T00:41:18.995Z,22.1
2016-09-11T00:41:39.541Z,22.2
2016-09-11T00:42:00.181Z,22.1
2016-09-11T00:42:20.752Z,22.1
2016-09-11T00:42:41.309Z,22
2016-09-11T00:43:01.890Z,22.1
2016-09-11T00:43:22.473Z,22
2016-09-11T00:43:43.399Z,22.1
2016-09-11T00:44:04.050Z,22
2016-09-11T00:44:24.578Z,22.1
2016-09-11T00:44:45.203Z,22.1
2016-09-11T00:45:06.134Z,22.1
2016-09-11T00:45:26.722Z,22
2016-09-11T00:45:47.259Z,22.1
2016-09-11T00:46:07.803Z,22.1
2016-09-11T00:46:28.388Z,22
2016-09-11T00:46:49.009Z,22.1
2016-09-11T00:47:09.673Z,22.1
2016-09-11T00:47:30.265Z,22.1
2016-09-11T00:47:51.020Z,22.1
2016-09-11T00:48:11.852Z,22.1
2016-09-11T00:48:32.427Z,22
2016-09-11T00:48:52.977Z,22.1
2016-09-11T00:49:13.543Z,22.1
2016-09-11T00:49:34.160Z,22
2016-09-11T00:49:55.254Z,22
2016-09-11T00:50:16.334Z,22
2016-09-11T00:50:36.935Z,22
2016-09-11T00:50:57.507Z,22.1
2016-09-11T00:51:18.127Z,22.1
2016-09-11T00:51:38.732Z,22.1
2016-09-11T00:51:59.277Z,22.1
2016-09-11T00:52:19.873Z,22
2016-09-11T00:52:40.457Z,22
2016-09-11T00:53:01.040Z,22
2016-09-11T00:53:21.796Z,22.1
2016-09-11T00:53:42.338Z,22
2016-09-11T00:54:03.010Z,22.1
2016-09-11T00:54:23.623Z,22
2016-09-11T00:54:44.186Z,22
2016-09-11T00:55:05.303Z,22
2016-09-11T00:55:25.958Z,22
2016-09-11T00:55:46.512Z,22
2016-09-11T00:56:07.087Z,22
2016-09-11T00:56:27.640Z,22
2016-09-11T00:56:48.172Z,22
2016-09-11T00:57:08.718Z,22
2016-09-11T00:57:29.480Z,22
2016-09-11T00:57:50.153Z,22
2016-09-11T00:58:10.793Z,22
2016-09-11T00:58:31.389Z,22
2016-09-11T00:58:52.271Z,22
2016-09-11T00:59:12.841Z,22
2016-09-11T00:59:33.410Z,22
2016-09-11T00:59:54.092Z,22
2016-09-11T01:00:14.824Z,22
2016-09-11T01:00:35.567Z,22
2016-09-11T01:00:56.145Z,22
2016-09-11T01:01:16.847Z,22
2016-09-11T01:01:37.456Z,22
2016-09-11T01:01:58.007Z,22
2016-09-11T01:02:18.790Z,22
2016-09-11T01:02:39.454Z,21.9
2016-09-11T01:03:00.147Z,22
2016-09-11T01:03:20.749Z,22
2016-09-11T01:03:41.481Z,21.9
2016-09-11T01:04:02.109Z,22
2016-09-11T01:04:22.670Z,22
2016-09-11T01:04:43.255Z,21.9
2016-09-11T01:05:04.653Z,22
2016-09-11T01:05:25.384Z,22
2016-09-11T01:05:45.928Z,22
2016-09-11T01:06:06.550Z,21.9
2016-09-11T01:06:27.137Z,21.9
2016-09-11T01:06:47.708Z,21.9
2016-09-11T01:07:08.314Z,22
2016-09-11T01:07:28.963Z,21.9
2016-09-11T01:07:49.663Z,21.9
2016-09-11T01:08:10.262Z,22
2016-09-11T01:08:30.901Z,21.9
2016-09-11T01:08:51.493Z,21.9
2016-09-11T01:09:12.120Z,22
2016-09-11T01:09:32.712Z,21.9
2016-09-11T01:09:53.299Z,21.9
2016-09-11T01:10:14.129Z,22
2016-09-11T01:10:34.717Z,22
2016-09-11T01:10:55.435Z,22
2016-09-11T01:11:16.053Z,22
2016-09-11T01:11:36.655Z,21.9
2016-09-11T01:11:57.218Z,21.9
2016-09-11T01:12:17.801Z,21.9
2016-09-11T01:12:38.438Z,22
2016-09-11T01:12:59.165Z,22
2016-09-11T01:13:19.784Z,22
2016-09-11T01:13:40.452Z,22
2016-09-11T01:14:01.057Z,21.9
2016-09-11T01:14:21.678Z,21.9
2016-09-11T01:14:42.390Z,22
2016-09-11T01:15:02.960Z,22
2016-09-11T01:15:23.499Z,21.9
2016-09-11T01:15:44.269Z,21.9
2016-09-11T01:16:04.886Z,21.9
2016-09-11T01:16:25.452Z,21.9
2016-09-11T01:16:46.027Z,21.9
2016-09-11T01:17:06.614Z,21.9
2016-09-11T01:17:27.134Z,21.9
2016-09-11T01:17:47.733Z,21.9
2016-09-11T01:18:08.350Z,21.8
2016-09-11T01:18:28.916Z,21.9
2016-09-11T01:18:49.473Z,21.8
2016-09-11T01:19:10.160Z,21.9
2016-09-11T01:19:30.681Z,21.9
2016-09-11T01:19:51.225Z,21.9
2016-09-11T01:20:12.628Z,21.8
2016-09-11T01:20:33.202Z,21.8
2016-09-11T01:20:53.778Z,21.8
2016-09-11T01:21:14.454Z,21.9
2016-09-11T01:21:35.005Z,21.9
2016-09-11T01:21:55.550Z,21.8
2016-09-11T01:22:16.298Z,21.9
2016-09-11T01:22:37.155Z,21.8
2016-09-11T01:22:57.749Z,21.8
2016-09-11T01:23:18.313Z,21.8
2016-09-11T01:23:38.883Z,21.8
2016-09-11T01:23:59.514Z,21.8
2016-09-11T01:24:20.499Z,21.9
2016-09-11T01:24:41.264Z,21.9
2016-09-11T01:25:02.308Z,21.8
2016-09-11T01:25:22.908Z,21.8
2016-09-11T01:25:43.509Z,21.8
2016-09-11T01:26:04.062Z,21.8
2016-09-11T01:26:24.905Z,21.8
2016-09-11T01:26:45.486Z,21.8
2016-09-11T01:27:06.187Z,21.8
2016-09-11T01:27:26.862Z,21.8
2016-09-11T01:27:47.439Z,21.8
2016-09-11T01:28:07.970Z,21.8
2016-09-11T01:28:28.583Z,21.8
2016-09-11T01:28:49.208Z,21.8
2016-09-11T01:29:09.802Z,21.8
2016-09-11T01:29:30.518Z,21.8
2016-09-11T01:29:51.130Z,21.8
2016-09-11T01:30:12.006Z,21.8
2016-09-11T01:30:32.640Z,21.7
2016-09-11T01:30:53.226Z,21.8
2016-09-11T01:31:13.812Z,21.8
2016-09-11T01:31:34.536Z,21.7
2016-09-11T01:31:55.679Z,21.8
2016-09-11T01:32:16.774Z,21.8
2016-09-11T01:32:39.563Z,21.8
2016-09-11T01:33:00.144Z,21.7
2016-09-11T01:33:20.730Z,21.7
2016-09-11T01:33:41.326Z,21.7
2016-09-11T01:34:01.972Z,21.7
2016-09-11T01:34:22.505Z,21.8
2016-09-11T01:34:43.063Z,21.7
2016-09-11T01:35:03.635Z,21.7
2016-09-11T01:35:24.597Z,21.8
2016-09-11T01:35:45.161Z,21.7
2016-09-11T01:36:05.843Z,21.7
2016-09-11T01:36:26.410Z,21.7
2016-09-11T01:36:46.974Z,21.7
2016-09-11T01:37:07.601Z,21.7
2016-09-11T01:37:28.346Z,21.7
2016-09-11T01:37:48.921Z,21.7
2016-09-11T01:38:09.474Z,21.7
2016-09-11T01:38:30.023Z,21.7
2016-09-11T01:38:50.619Z,21.7
2016-09-11T01:39:11.213Z,21.7
2016-09-11T01:39:31.905Z,21.7
2016-09-11T01:39:52.464Z,21.7
2016-09-11T01:40:13.351Z,21.7
2016-09-11T01:40:33.916Z,21.6
2016-09-11T01:40:54.446Z,21.6
2016-09-11T01:41:15.106Z,21.7
2016-09-11T01:41:35.793Z,21.7
2016-09-11T01:41:56.343Z,21.7
2016-09-11T01:42:17.014Z,21.7
2016-09-11T01:42:37.599Z,21.7
2016-09-11T01:42:58.293Z,21.7
2016-09-11T01:43:18.927Z,21.7
2016-09-11T01:43:39.520Z,21.7
2016-09-11T01:44:00.138Z,21.7
2016-09-11T01:44:20.851Z,21.7
2016-09-11T01:44:41.408Z,21.7
2016-09-11T01:45:02.072Z,21.6
2016-09-11T01:45:22.683Z,21.6
2016-09-11T01:45:43.277Z,21.6
2016-09-11T01:46:03.898Z,21.6
2016-09-11T01:46:24.481Z,21.6
2016-09-11T01:46:45.058Z,21.5
2016-09-11T01:47:05.608Z,21.5
2016-09-11T01:47:26.330Z,21.6
2016-09-11T01:47:46.884Z,21.5
2016-09-11T01:48:07.514Z,21.5
2016-09-11T01:48:28.067Z,21.6
2016-09-11T01:48:48.659Z,21.7
2016-09-11T01:49:10.163Z,21.6
2016-09-11T01:49:30.745Z,21.5
2016-09-11T01:49:51.303Z,21.6
2016-09-11T01:50:12.800Z,21.6
2016-09-11T01:50:33.363Z,21.5
2016-09-11T01:50:53.877Z,21.5
2016-09-11T01:51:14.568Z,21.6
2016-09-11T01:51:35.271Z,21.5
2016-09-11T01:51:55.833Z,21.5
2016-09-11T01:52:16.454Z,21.6
2016-09-11T01:52:37.000Z,21.5
2016-09-11T01:52:57.587Z,21.5
2016-09-11T01:53:18.510Z,21.5
2016-09-11T01:53:39.079Z,21.5
2016-09-11T01:53:59.761Z,21.5
2016-09-11T01:54:20.397Z,21.5
2016-09-11T01:54:40.976Z,21.5
2016-09-11T01:55:01.535Z,21.5
2016-09-11T01:55:22.376Z,21.5
2016-09-11T01:55:42.936Z,21.5
2016-09-11T01:56:03.523Z,21.5
2016-09-11T01:56:24.148Z,21.5
2016-09-11T01:56:44.708Z,21.5
2016-09-11T01:57:05.688Z,21.5
2016-09-11T01:57:26.335Z,21.4
2016-09-11T01:57:47.021Z,21.5
2016-09-11T01:58:08.647Z,21.5
2016-09-11T01:58:29.589Z,21.4
2016-09-11T01:58:50.139Z,21.5
2016-09-11T01:59:11.278Z,21.5
2016-09-11T01:59:31.949Z,21.4
2016-09-11T01:59:52.753Z,21.4
2016-09-11T02:00:13.497Z,21.4
2016-09-11T02:00:34.499Z,21.4
2016-09-11T02:00:55.220Z,21.4
2016-09-11T02:01:16.006Z,21.4
2016-09-11T02:01:36.618Z,21.4
2016-09-11T02:01:57.171Z,21.4
2016-09-11T02:02:17.769Z,21.4
2016-09-11T02:02:38.335Z,21.4
2016-09-11T02:02:58.917Z,21.4
2016-09-11T02:03:19.561Z,21.4
2016-09-11T02:03:40.109Z,21.4
2016-09-11T02:04:00.703Z,21.4
2016-09-11T02:04:21.625Z,21.4
2016-09-11T02:04:42.203Z,21.3
2016-09-11T02:05:03.374Z,21.4
2016-09-11T02:05:24.067Z,21.4
2016-09-11T02:05:44.726Z,21.4
2016-09-11T02:06:05.313Z,21.4
2016-09-11T02:06:25.920Z,21.4
2016-09-11T02:06:46.610Z,21.4
2016-09-11T02:07:07.183Z,21.4
2016-09-11T02:07:27.796Z,21.4
2016-09-11T02:07:48.329Z,21.4
2016-09-11T02:08:09.046Z,21.4
2016-09-11T02:08:29.608Z,21.4
2016-09-11T02:08:50.340Z,21.3
2016-09-11T02:09:10.969Z,21.4
2016-09-11T02:09:32.054Z,21.4
2016-09-11T02:09:52.599Z,21.4
2016-09-11T02:10:14.357Z,21.4
2016-09-11T02:10:34.981Z,21.4
2016-09-11T02:10:55.530Z,21.4
2016-09-11T02:11:16.487Z,21.3
2016-09-11T02:11:37.095Z,21.5
2016-09-11T02:11:57.679Z,21.4
2016-09-11T02:12:18.456Z,21.4
2016-09-11T02:12:39.106Z,21.3
2016-09-11T02:12:59.731Z,21.4
2016-09-11T02:13:20.257Z,21.3
2016-09-11T02:13:40.792Z,21.4
2016-09-11T02:14:01.385Z,21.4
2016-09-11T02:14:22.006Z,21.3
2016-09-11T02:14:42.653Z,21.4
2016-09-11T02:15:03.239Z,21.4
2016-09-11T02:15:23.876Z,21.4
2016-09-11T02:15:44.426Z,21.4
2016-09-11T02:16:05.013Z,21.4
2016-09-11T02:16:25.669Z,21.4
2016-09-11T02:16:46.281Z,21.4
2016-09-11T02:17:06.862Z,21.4
2016-09-11T02:17:27.418Z,21.3
2016-09-11T02:17:48.003Z,21.4
2016-09-11T02:18:08.644Z,21.4
2016-09-11T02:18:29.197Z,21.4
2016-09-11T02:18:49.780Z,21.4
2016-09-11T02:19:10.367Z,21.4
2016-09-11T02:19:30.946Z,21.3
2016-09-11T02:19:51.545Z,21.4
2016-09-11T02:20:12.698Z,21.3
2016-09-11T02:20:33.369Z,21.4
2016-09-11T02:20:53.928Z,21.4
2016-09-11T02:21:14.704Z,21.4
2016-09-11T02:21:35.287Z,21.4
2016-09-11T02:21:55.830Z,21.4
2016-09-11T02:22:16.379Z,21.4
2016-09-11T02:22:37.015Z,21.4
2016-09-11T02:22:57.602Z,21.4
2016-09-11T02:23:18.355Z,21.4
2016-09-11T02:23:38.898Z,21.4
2016-09-11T02:23:59.570Z,21.4
2016-09-11T02:24:20.451Z,21.3
2016-09-11T02:24:41.093Z,21.4
2016-09-11T02:25:01.940Z,21.4
2016-09-11T02:25:22.535Z,21.4
2016-09-11T02:25:43.077Z,21.4
2016-09-11T02:26:03.639Z,21.4
2016-09-11T02:26:24.296Z,21.4
2016-09-11T02:26:44.851Z,21.4
2016-09-11T02:27:05.431Z,21.4
2016-09-11T02:27:26.082Z,21.4
2016-09-11T02:27:46.620Z,21.4
2016-09-11T02:28:07.187Z,21.5
2016-09-11T02:28:27.817Z,21.4
2016-09-11T02:28:48.514Z,21.4
2016-09-11T02:29:09.322Z,21.4
2016-09-11T02:29:29.868Z,21.4
2016-09-11T02:29:50.608Z,21.3
2016-09-11T02:30:11.504Z,21.4
2016-09-11T02:30:32.069Z,21.4
2016-09-11T02:30:52.842Z,21.4
2016-09-11T02:31:13.713Z,21.4
2016-09-11T02:31:34.422Z,21.4
2016-09-11T02:31:55.055Z,21.4
2016-09-11T02:32:15.783Z,21.4
2016-09-11T02:32:36.330Z,21.4
2016-09-11T02:32:56.925Z,21.4
2016-09-11T02:33:17.671Z,21.4
2016-09-11T02:33:38.221Z,21.4
2016-09-11T02:33:59.048Z,21.5
2016-09-11T02:34:20.044Z,21.4
2016-09-11T02:34:40.616Z,21.4
2016-09-11T02:35:01.191Z,21.4
2016-09-11T02:35:22.480Z,21.4
2016-09-11T02:35:43.016Z,21.4
2016-09-11T02:36:03.635Z,21.4
2016-09-11T02:36:24.233Z,21.5
2016-09-11T02:36:44.829Z,21.4
2016-09-11T02:37:05.609Z,21.4
2016-09-11T02:37:26.144Z,21.4
2016-09-11T02:37:46.715Z,21.5
2016-09-11T02:38:07.475Z,21.4
2016-09-11T02:38:28.239Z,21.4
2016-09-11T02:38:48.812Z,21.5
2016-09-11T02:39:09.431Z,21.4
2016-09-11T02:39:30.064Z,21.4
2016-09-11T02:39:50.637Z,21.5
2016-09-11T02:40:11.186Z,21.5
2016-09-11T02:40:31.793Z,21.5
2016-09-11T02:40:52.375Z,21.5
2016-09-11T02:41:12.960Z,21.5
2016-09-11T02:41:33.541Z,21.5
2016-09-11T02:41:54.139Z,21.5
2016-09-11T02:42:14.847Z,21.5
2016-09-11T02:42:35.471Z,21.5
2016-09-11T02:42:56.028Z,21.5
2016-09-11T02:43:16.626Z,21.5
2016-09-11T02:43:37.205Z,21.5
2016-09-11T02:43:57.804Z,21.5
2016-09-11T02:44:18.595Z,21.5
2016-09-11T02:44:39.174Z,21.5
2016-09-11T02:44:59.750Z,21.5
2016-09-11T02:45:20.941Z,21.4
2016-09-11T02:45:41.628Z,21.5
2016-09-11T02:46:02.204Z,21.4
2016-09-11T02:46:22.812Z,21.5
2016-09-11T02:46:43.397Z,21.4
2016-09-11T02:47:03.971Z,21.5
2016-09-11T02:47:24.603Z,21.5
2016-09-11T02:47:45.198Z,21.5
2016-09-11T02:48:05.738Z,21.5
2016-09-11T02:48:26.284Z,21.5
2016-09-11T02:48:46.931Z,21.4
2016-09-11T02:49:07.474Z,21.4
2016-09-11T02:49:28.023Z,21.5
2016-09-11T02:49:48.582Z,21.5
2016-09-11T02:50:09.119Z,21.5
2016-09-11T02:50:29.764Z,21.5
2016-09-11T02:50:50.366Z,21.6
2016-09-11T02:51:11.020Z,21.5
2016-09-11T02:51:31.630Z,21.5
2016-09-11T02:51:52.241Z,21.7
2016-09-11T02:52:12.827Z,21.6
2016-09-11T02:52:33.590Z,21.7
2016-09-11T02:52:54.177Z,21.5
2016-09-11T02:53:14.821Z,21.6
2016-09-11T02:53:35.373Z,21.7
2016-09-11T02:53:56.059Z,21.5
2016-09-11T02:54:16.735Z,21.6
2016-09-11T02:54:37.313Z,21.6
2016-09-11T02:54:57.849Z,21.7
2016-09-11T02:55:18.549Z,21.7
2016-09-11T02:55:39.117Z,21.6
2016-09-11T02:55:59.717Z,21.7
2016-09-11T02:56:20.292Z,21.6
2016-09-11T02:56:40.830Z,21.7
2016-09-11T02:57:01.450Z,21.7
2016-09-11T02:57:22.018Z,21.7
2016-09-11T02:57:42.632Z,21.7
2016-09-11T02:58:03.352Z,21.7
2016-09-11T02:58:23.902Z,21.7
2016-09-11T02:58:44.443Z,21.7
2016-09-11T02:59:05.008Z,21.7
2016-09-11T02:59:25.596Z,21.7
2016-09-11T02:59:46.232Z,21.7
2016-09-11T03:00:06.877Z,21.7
2016-09-11T03:00:27.507Z,21.7
2016-09-11T03:00:48.299Z,21.6
2016-09-11T03:01:08.984Z,21.7
2016-09-11T03:01:29.574Z,21.6
2016-09-11T03:01:50.142Z,21.7
2016-09-11T03:02:10.848Z,21.7
2016-09-11T03:02:31.556Z,21.7
2016-09-11T03:02:52.088Z,21.7
2016-09-11T03:03:12.738Z,21.6
2016-09-11T03:03:33.347Z,21.7
2016-09-11T03:03:53.902Z,21.7
2016-09-11T03:04:14.493Z,21.6
2016-09-11T03:04:35.115Z,21.7
2016-09-11T03:04:55.666Z,21.7
2016-09-11T03:05:16.238Z,21.6
2016-09-11T03:05:36.913Z,21.7
2016-09-11T03:05:57.503Z,21.7
2016-09-11T03:06:18.075Z,21.7
2016-09-11T03:06:38.623Z,21.7
2016-09-11T03:06:59.213Z,21.7
2016-09-11T03:07:19.806Z,21.7
2016-09-11T03:07:40.360Z,21.6
2016-09-11T03:08:00.897Z,21.7
2016-09-11T03:08:21.447Z,21.6
2016-09-11T03:08:42.135Z,21.6
2016-09-11T03:09:02.731Z,21.7
2016-09-11T03:09:23.343Z,21.6
2016-09-11T03:09:43.887Z,21.6
2016-09-11T03:10:04.713Z,21.6
2016-09-11T03:10:25.286Z,21.7
2016-09-11T03:10:45.861Z,21.6
2016-09-11T03:11:06.509Z,21.7
2016-09-11T03:11:27.092Z,21.7
2016-09-11T03:11:47.660Z,21.7
2016-09-11T03:12:08.278Z,21.6
2016-09-11T03:12:28.822Z,21.7
2016-09-11T03:12:49.373Z,21.7
2016-09-11T03:13:10.068Z,21.7
2016-09-11T03:13:30.636Z,21.6
2016-09-11T03:13:51.488Z,21.7
2016-09-11T03:14:12.326Z,21.7
2016-09-11T03:14:32.893Z,21.6
2016-09-11T03:14:53.514Z,21.7
2016-09-11T03:15:14.103Z,21.7
2016-09-11T03:15:34.731Z,21.7
2016-09-11T03:15:55.282Z,21.6
2016-09-11T03:16:15.929Z,21.6
2016-09-11T03:16:36.509Z,21.6
2016-09-11T03:16:57.076Z,21.7
2016-09-11T03:17:17.664Z,21.7
2016-09-11T03:17:38.238Z,21.7
2016-09-11T03:17:59.084Z,21.7
2016-09-11T03:18:19.694Z,21.7
2016-09-11T03:18:40.253Z,21.7
2016-09-11T03:19:00.792Z,21.7
2016-09-11T03:19:21.408Z,21.7
2016-09-11T03:19:42.007Z,21.7
2016-09-11T03:20:02.571Z,21.7
2016-09-11T03:20:23.237Z,21.7
2016-09-11T03:20:43.821Z,21.7
2016-09-11T03:21:04.510Z,21.7
2016-09-11T03:21:25.066Z,21.7
2016-09-11T03:21:45.597Z,21.6
2016-09-11T03:22:06.165Z,21.7
2016-09-11T03:22:27.106Z,21.7
2016-09-11T03:22:47.682Z,21.7
2016-09-11T03:23:08.854Z,21.6
2016-09-11T03:23:29.486Z,21.7
2016-09-11T03:23:50.023Z,21.7
2016-09-11T03:24:10.624Z,21.6
2016-09-11T03:24:31.191Z,21.7
2016-09-11T03:24:51.755Z,21.7
2016-09-11T03:25:12.754Z,21.6
2016-09-11T03:25:33.362Z,21.7
2016-09-11T03:25:53.932Z,21.7
2016-09-11T03:26:14.650Z,21.7
2016-09-11T03:26:35.328Z,21.7
2016-09-11T03:26:55.944Z,21.7
2016-09-11T03:27:16.508Z,21.7
2016-09-11T03:27:37.120Z,21.7
2016-09-11T03:27:57.783Z,21.7
2016-09-11T03:28:18.596Z,21.7
2016-09-11T03:28:39.282Z,21.6
2016-09-11T03:28:59.925Z,21.6
2016-09-11T03:29:20.761Z,21.7
2016-09-11T03:29:41.382Z,21.5
2016-09-11T03:30:02.447Z,21.6
2016-09-11T03:30:23.277Z,21.6
2016-09-11T03:30:43.871Z,21.5
2016-09-11T03:31:04.405Z,21.7
2016-09-11T03:31:24.996Z,21.6
2016-09-11T03:31:45.557Z,21.6
2016-09-11T03:32:06.179Z,21.5
2016-09-11T03:32:26.785Z,21.5
2016-09-11T03:32:47.362Z,21.6
2016-09-11T03:33:07.936Z,21.6
2016-09-11T03:33:28.491Z,21.6
2016-09-11T03:33:49.060Z,21.5
2016-09-11T03:34:09.721Z,21.5
2016-09-11T03:34:30.298Z,21.5
2016-09-11T03:34:50.895Z,21.6
2016-09-11T03:35:12.601Z,21.6
2016-09-11T03:35:33.237Z,21.5
2016-09-11T03:35:53.832Z,21.5
2016-09-11T03:36:14.422Z,21.6
2016-09-11T03:36:35.234Z,21.5
2016-09-11T03:36:55.833Z,21.6
2016-09-11T03:37:16.531Z,21.5
2016-09-11T03:37:38.339Z,21.5
2016-09-11T03:37:58.890Z,21.5
2016-09-11T03:38:19.461Z,21.6
2016-09-11T03:38:40.039Z,21.6
2016-09-11T03:39:00.586Z,21.6
2016-09-11T03:39:21.224Z,21.6
2016-09-11T03:39:41.806Z,21.6
2016-09-11T03:40:02.860Z,21.5
2016-09-11T03:40:24.107Z,21.5
2016-09-11T03:40:44.726Z,21.6
2016-09-11T03:41:05.295Z,21.6
2016-09-11T03:41:25.858Z,21.6
2016-09-11T03:41:46.427Z,21.6
2016-09-11T03:42:07.193Z,21.5
2016-09-11T03:42:27.765Z,21.6
2016-09-11T03:42:48.467Z,21.7
2016-09-11T03:43:09.015Z,21.5
2016-09-11T03:43:29.574Z,21.6
2016-09-11T03:43:50.130Z,21.6
2016-09-11T03:44:10.871Z,21.5
2016-09-11T03:44:31.460Z,21.6
2016-09-11T03:44:52.017Z,21.6
2016-09-11T03:45:12.728Z,21.7
2016-09-11T03:45:33.499Z,21.6
2016-09-11T03:45:54.161Z,21.6
2016-09-11T03:46:14.771Z,21.6
2016-09-11T03:46:35.289Z,21.5
2016-09-11T03:46:55.898Z,21.6
2016-09-11T03:47:16.496Z,21.5
2016-09-11T03:47:37.263Z,21.7
2016-09-11T03:47:57.843Z,21.6
2016-09-11T03:48:19.148Z,21.7
2016-09-11T03:48:39.751Z,21.5
2016-09-11T03:49:00.296Z,21.6
2016-09-11T03:49:20.889Z,21.6
2016-09-11T03:49:41.447Z,21.6
2016-09-11T03:50:02.670Z,21.6
2016-09-11T03:50:23.341Z,21.7
2016-09-11T03:50:43.888Z,21.6
2016-09-11T03:51:04.527Z,21.6
2016-09-11T03:51:25.190Z,21.7
2016-09-11T03:51:45.927Z,21.6
2016-09-11T03:52:06.625Z,21.5
2016-09-11T03:52:27.247Z,21.5
2016-09-11T03:52:47.795Z,21.7
2016-09-11T03:53:08.444Z,21.6
2016-09-11T03:53:29.007Z,21.6
2016-09-11T03:53:49.786Z,21.6
2016-09-11T03:54:10.685Z,21.6
2016-09-11T03:54:31.236Z,21.6
2016-09-11T03:54:51.829Z,21.6
2016-09-11T03:55:12.731Z,21.7
2016-09-11T03:55:33.295Z,21.7
2016-09-11T03:55:53.880Z,21.7
2016-09-11T03:56:14.471Z,21.7
2016-09-11T03:56:35.009Z,21.6
2016-09-11T03:56:55.557Z,21.6
2016-09-11T03:57:16.240Z,21.7
2016-09-11T03:57:36.854Z,21.7
2016-09-11T03:57:57.493Z,21.7
2016-09-11T03:58:18.023Z,21.7
2016-09-11T03:58:38.803Z,21.7
2016-09-11T03:58:59.377Z,21.7
2016-09-11T03:59:20.040Z,21.6
2016-09-11T03:59:40.595Z,21.7
2016-09-11T04:00:01.207Z,21.7
2016-09-11T04:00:21.943Z,21.7
2016-09-11T04:00:42.575Z,21.7
2016-09-11T04:01:03.537Z,21.7
2016-09-11T04:01:24.392Z,21.7
2016-09-11T04:01:44.971Z,21.7
2016-09-11T04:02:05.551Z,21.7
2016-09-11T04:02:26.174Z,21.7
2016-09-11T04:02:46.737Z,21.7
2016-09-11T04:03:07.291Z,21.7
2016-09-11T04:03:27.903Z,21.7
2016-09-11T04:03:48.447Z,21.7
2016-09-11T04:04:08.996Z,21.6
2016-09-11T04:04:29.709Z,21.7
2016-09-11T04:04:50.415Z,21.7
2016-09-11T04:05:11.309Z,21.6
2016-09-11T04:05:31.871Z,21.6
2016-09-11T04:05:52.424Z,21.7
2016-09-11T04:06:13.744Z,21.7
2016-09-11T04:06:34.350Z,21.7
2016-09-11T04:06:54.905Z,21.6
2016-09-11T04:07:16.016Z,21.7
2016-09-11T04:07:36.742Z,21.7
2016-09-11T04:07:57.357Z,21.7
2016-09-11T04:08:18.076Z,21.7
2016-09-11T04:08:38.742Z,21.5
2016-09-11T04:08:59.358Z,21.7
2016-09-11T04:09:20.086Z,21.7
2016-09-11T04:09:40.737Z,21.6
2016-09-11T04:10:01.290Z,21.6
2016-09-11T04:10:22.022Z,21.6
2016-09-11T04:10:42.648Z,21.7
2016-09-11T04:11:03.241Z,21.6
2016-09-11T04:11:23.873Z,21.7
2016-09-11T04:11:44.425Z,21.7
2016-09-11T04:12:04.998Z,21.7
2016-09-11T04:12:25.554Z,21.7
2016-09-11T04:12:46.433Z,21.7
2016-09-11T04:13:06.960Z,21.7
2016-09-11T04:13:27.661Z,21.7
2016-09-11T04:13:48.464Z,21.7
2016-09-11T04:14:09.214Z,21.6
2016-09-11T04:14:29.811Z,21.7
2016-09-11T04:14:50.363Z,21.7
2016-09-11T04:15:10.925Z,21.7
2016-09-11T04:15:31.493Z,21.7
2016-09-11T04:15:52.049Z,21.7
2016-09-11T04:16:12.682Z,21.7
2016-09-11T04:16:33.230Z,21.8
2016-09-11T04:16:53.794Z,21.6
2016-09-11T04:17:14.712Z,21.7
2016-09-11T04:17:35.299Z,21.8
2016-09-11T04:17:55.938Z,21.7
2016-09-11T04:18:16.713Z,21.7
2016-09-11T04:18:37.334Z,21.7
2016-09-11T04:18:57.908Z,21.7
2016-09-11T04:19:18.474Z,21.8
2016-09-11T04:19:39.133Z,21.7
2016-09-11T04:19:59.706Z,21.7
2016-09-11T04:20:21.035Z,21.7
2016-09-11T04:20:41.662Z,21.8
2016-09-11T04:21:02.326Z,21.6
2016-09-11T04:21:22.931Z,21.7
2016-09-11T04:21:43.490Z,21.7
2016-09-11T04:22:04.038Z,21.7
2016-09-11T04:22:24.598Z,21.8
2016-09-11T04:22:45.296Z,21.7
2016-09-11T04:23:05.916Z,21.8
2016-09-11T04:23:26.527Z,21.7
2016-09-11T04:23:47.431Z,21.7
2016-09-11T04:24:08.458Z,21.7
2016-09-11T04:24:29.021Z,21.7
2016-09-11T04:24:49.664Z,21.7
2016-09-11T04:25:23.253Z,21.7
2016-09-11T04:25:43.842Z,21.8
2016-09-11T04:26:05.589Z,21.7
2016-09-11T04:26:26.214Z,21.7
2016-09-11T04:26:46.768Z,21.7
2016-09-11T04:27:08.148Z,21.7
2016-09-11T04:27:29.039Z,21.8
2016-09-11T04:27:49.597Z,21.6
2016-09-11T04:28:10.150Z,21.8
2016-09-11T04:28:30.674Z,21.7
2016-09-11T04:28:51.207Z,21.7
2016-09-11T04:29:11.746Z,21.7
2016-09-11T04:29:32.273Z,21.7
2016-09-11T04:29:52.806Z,21.7
2016-09-11T04:30:13.357Z,21.8
2016-09-11T04:30:33.897Z,21.7
2016-09-11T04:30:54.434Z,21.7
2016-09-11T04:31:14.982Z,21.7
2016-09-11T04:31:35.553Z,21.7
2016-09-11T04:31:56.090Z,21.7
2016-09-11T04:32:16.650Z,21.7
2016-09-11T04:32:37.182Z,21.8
2016-09-11T04:32:57.728Z,21.7
2016-09-11T04:33:18.270Z,21.7
2016-09-11T04:33:38.805Z,21.7
2016-09-11T04:33:59.355Z,21.7
2016-09-11T04:34:19.919Z,21.7
2016-09-11T04:34:40.447Z,21.7
2016-09-11T04:35:00.991Z,21.8
2016-09-11T04:35:21.541Z,21.7
2016-09-11T04:35:42.118Z,21.7
2016-09-11T04:36:02.660Z,21.7
2016-09-11T04:36:23.201Z,21.7
2016-09-11T04:36:43.707Z,21.7